createdAt,value
2022-10-11T16:41:35.542Z,1.60
2022-10-11T16:44:04.256Z,1.30
2022-10-11T16:46:32.968Z,1.43
2022-10-11T16:49:02.044Z,1.40
2022-10-11T16:51:30.055Z,1.33
2022-10-11T16:53:58.211Z,1.40
2022-10-11T16:56:26.284Z,2.00
2022-10-11T16:58:56.377Z,1.80
2022-10-11T17:01:24.796Z,1.93
2022-10-11T17:03:53.238Z,1.73
2022-10-11T17:06:21.849Z,1.90
2022-10-11T17:08:50.186Z,1.90
2022-10-11T17:11:18.655Z,1.90
2022-10-11T17:13:47.566Z,1.70
2022-10-11T17:16:17.633Z,2.30
2022-10-11T17:18:45.682Z,2.37
2022-10-11T17:21:16.373Z,1.90
2022-10-11T17:23:44.928Z,1.90
2022-10-11T17:26:17.426Z,2.07
2022-10-11T17:28:45.866Z,2.50
2022-10-11T17:31:13.955Z,2.67
2022-10-11T17:33:43.403Z,2.57
2022-10-11T17:36:17.411Z,2.80
2022-10-11T17:38:45.512Z,2.80
2022-10-11T17:41:13.965Z,3.17
2022-10-11T17:43:42.049Z,3.60
2022-10-11T17:46:12.145Z,4.10
2022-10-11T17:48:40.370Z,4.43
2022-10-11T17:51:11.269Z,4.87
2022-10-11T17:53:39.806Z,5.00
2022-10-11T17:56:09.539Z,4.73
2022-10-11T17:58:37.987Z,4.50
2022-10-11T18:01:08.672Z,4.57
2022-10-11T18:03:37.203Z,3.93
2022-10-11T18:06:06.463Z,4.00
2022-10-11T18:08:40.446Z,4.10
2022-10-11T18:11:12.028Z,3.50
2022-10-11T18:13:42.696Z,3.67
2022-10-11T18:16:11.740Z,3.83
2022-10-11T18:18:40.155Z,4.17
2022-10-11T18:21:08.477Z,4.03
2022-10-11T18:23:38.415Z,4.00
2022-10-11T18:26:10.768Z,3.67
2022-10-11T18:28:38.956Z,3.77
2022-10-11T18:31:12.503Z,3.57
2022-10-11T18:33:42.064Z,3.70
2022-10-11T18:36:13.370Z,3.03
2022-10-11T18:38:46.396Z,3.00
2022-10-11T18:41:16.742Z,3.20
2022-10-11T18:43:49.153Z,3.07
2022-10-11T18:46:17.459Z,3.30
2022-10-11T18:48:47.900Z,2.30
2022-10-11T18:51:18.397Z,2.30
2022-10-11T18:53:48.365Z,2.27
2022-10-11T18:56:20.582Z,2.37
2022-10-11T18:58:49.586Z,2.53
2022-10-11T19:01:19.363Z,2.60
2022-10-11T19:03:49.432Z,2.50
2022-10-11T19:06:20.544Z,3.20
2022-10-11T19:08:51.650Z,2.70
2022-10-11T19:11:22.092Z,3.10
2022-10-11T19:13:56.231Z,2.90
2022-10-11T19:16:24.927Z,3.47
2022-10-11T19:18:53.793Z,2.90
2022-10-11T19:21:22.035Z,3.10
2022-10-11T19:23:52.054Z,3.13
2022-10-11T19:26:22.773Z,3.10
2022-10-11T19:28:56.257Z,3.30
2022-10-11T19:31:24.850Z,3.33
2022-10-11T19:33:52.850Z,3.53
2022-10-11T19:36:21.100Z,3.20
2022-10-11T19:38:56.473Z,3.30
2022-10-11T19:41:25.520Z,3.63
2022-10-11T19:43:54.024Z,3.43
2022-10-11T19:46:44.515Z,3.33
2022-10-11T19:49:13.951Z,2.97
2022-10-11T19:51:42.187Z,3.40
2022-10-11T19:54:13.652Z,3.30
2022-10-11T19:56:42.469Z,2.80
2022-10-11T19:59:12.226Z,3.73
2022-10-11T20:01:41.315Z,3.50
2022-10-11T20:04:27.366Z,3.80
2022-10-11T20:06:59.359Z,3.40
2022-10-11T20:09:30.278Z,3.30
2022-10-11T20:11:58.570Z,3.60
2022-10-11T20:14:26.679Z,3.57
2022-10-11T20:16:54.708Z,3.70
2022-10-11T20:19:29.345Z,3.80
2022-10-11T20:21:58.808Z,3.70
2022-10-11T20:24:32.666Z,4.20
2022-10-11T20:27:01.758Z,4.03
2022-10-11T20:29:29.795Z,3.90
2022-10-11T20:31:58.926Z,4.27
2022-10-11T20:34:28.281Z,4.00
2022-10-11T20:36:56.373Z,3.47
2022-10-11T20:39:24.752Z,3.10
2022-10-11T20:41:54.096Z,3.10
2022-10-11T20:44:22.128Z,3.50
2022-10-11T20:46:50.130Z,3.90
2022-10-11T20:49:19.889Z,4.20
2022-10-11T20:51:48.016Z,4.13
2022-10-11T20:54:16.442Z,3.97
2022-10-11T20:56:44.510Z,4.13
2022-10-11T20:59:13.934Z,4.50
2022-10-11T21:01:43.272Z,4.30
2022-10-11T21:04:18.467Z,3.70
2022-10-11T21:06:46.988Z,4.13
2022-10-11T21:09:16.977Z,4.10
2022-10-11T21:11:45.275Z,3.80
2022-10-11T21:14:14.855Z,4.10
2022-10-11T21:16:43.113Z,4.07
2022-10-11T21:19:15.009Z,4.33
2022-10-11T21:21:43.761Z,4.40
2022-10-11T21:24:11.850Z,4.17
2022-10-11T21:26:40.368Z,4.03
2022-10-11T21:29:08.560Z,4.40
2022-10-11T21:31:37.967Z,4.13
2022-10-11T21:34:07.353Z,4.27
2022-10-11T21:36:35.427Z,4.57
2022-10-11T21:39:03.746Z,4.07
2022-10-11T21:41:32.108Z,4.50
2022-10-11T21:44:00.910Z,5.50
2022-10-11T21:47:04.926Z,4.50
2022-10-11T21:49:20.599Z,4.40
2022-10-11T21:51:48.623Z,4.33
2022-10-11T21:54:16.884Z,4.73
2022-10-11T21:56:44.892Z,4.43
2022-10-11T21:59:35.969Z,4.40
2022-10-11T22:02:04.022Z,4.67
2022-10-11T22:04:33.312Z,4.13
2022-10-11T22:07:01.363Z,4.60
2022-10-11T22:09:29.944Z,5.43
2022-10-11T22:11:58.270Z,4.87
2022-10-11T22:14:26.333Z,5.17
2022-10-11T22:16:54.317Z,4.73
2022-10-11T22:19:22.389Z,5.13
2022-10-11T22:21:51.806Z,4.57
2022-10-11T22:24:19.833Z,5.13
2022-10-11T22:26:47.849Z,5.00
2022-10-11T22:29:15.851Z,5.20
2022-10-11T22:31:43.852Z,5.00
2022-10-11T22:34:11.873Z,5.30
2022-10-11T22:36:39.879Z,5.57
2022-10-11T22:39:10.097Z,5.83
2022-10-11T22:41:38.831Z,6.43
2022-10-11T22:44:07.245Z,6.13
2022-10-11T22:46:35.343Z,6.23
2022-10-11T22:49:03.408Z,6.57
2022-10-11T22:51:31.399Z,6.80
2022-10-11T22:53:59.420Z,5.00
2022-10-11T22:56:28.965Z,5.00
2022-10-11T22:58:56.984Z,5.80
2022-10-11T23:01:24.979Z,6.17
2022-10-11T23:03:54.038Z,5.87
2022-10-11T23:06:22.101Z,5.20
2022-10-11T23:08:50.151Z,5.40
2022-10-11T23:11:18.157Z,5.10
2022-10-11T23:13:47.547Z,5.57
2022-10-11T23:16:15.656Z,5.67
2022-10-11T23:18:44.107Z,5.63
2022-10-11T23:21:13.169Z,5.27
2022-10-11T23:23:41.184Z,4.93
2022-10-11T23:26:13.366Z,5.90
2022-10-11T23:28:41.619Z,5.70
2022-10-11T23:31:13.257Z,6.40
2022-10-11T23:33:41.285Z,5.67
2022-10-11T23:36:15.566Z,5.53
2022-10-11T23:38:43.705Z,5.87
2022-10-11T23:41:11.884Z,5.30
2022-10-11T23:43:39.919Z,5.27
2022-10-11T23:46:07.976Z,4.30
2022-10-11T23:48:37.364Z,3.87
2022-10-11T23:51:05.492Z,2.97
2022-10-11T23:53:33.637Z,3.63
2022-10-11T23:56:01.674Z,3.17
2022-10-11T23:58:29.821Z,3.47
